Time;durP1;ratioP1;P1;durP2;ratioP2;P2;SDS_P1;SDS_P2;PMS_P1;PMS_P2;Temp;Humidity;BMP_temperature;BMP_pressure;BME280_temperature;BME280_humidity;BME280_pressure;Samples;Min_cycle;Max_cycle;Signal;HPM_P1;HPM_P2
2021/03/10 00:02:00;;;;;;;77.50;42.35;;;;;;;;;;5011328;28;20042;-73
2021/03/10 00:04:26;;;;;;;77.70;42.10;;;;;;;;;;5018100;28;20037;-72
2021/03/10 00:06:52;;;;;;;80.70;42.83;;;;;;;;;;5023189;28;20024;-73
2021/03/10 00:09:19;;;;;;;77.00;39.55;;;;;;;;;;5017817;28;20033;-74
2021/03/10 00:11:45;;;;;;;75.30;42.03;;;;;;;;;;5020705;28;20026;-73
2021/03/10 00:14:11;;;;;;;71.45;39.83;;;;;;;;;;5017040;28;20032;-74
2021/03/10 00:16:38;;;;;;;80.10;41.40;;;;;;;;;;5024011;28;20040;-73
2021/03/10 00:19:04;;;;;;;68.60;39.88;;;;;;;;;;5009972;28;20117;-73
2021/03/10 00:21:30;;;;;;;70.05;38.65;;;;;;;;;;5018343;28;20036;-73
2021/03/10 00:23:56;;;;;;;66.47;39.25;;;;;;;;;;5017778;28;20030;-73
2021/03/10 00:26:22;;;;;;;74.90;41.10;;;;;;;;;;5019581;28;20097;-73
2021/03/10 00:28:48;;;;;;;74.18;39.58;;;;;;;;;;5016085;28;20033;-72
2021/03/10 00:31:14;;;;;;;67.22;39.08;;;;;;;;;;5019317;28;20049;-73
2021/03/10 00:33:40;;;;;;;75.60;39.67;;;;;;;;;;5024848;28;20029;-74
2021/03/10 00:36:06;;;;;;;68.57;39.20;;;;;;;;;;5015078;28;20128;-73
2021/03/10 00:38:32;;;;;;;68.05;39.25;;;;;;;;;;5015268;28;20014;-73
2021/03/10 00:40:58;;;;;;;69.13;40.67;;;;;;;;;;5016738;28;20045;-73
2021/03/10 00:43:24;;;;;;;72.43;41.08;;;;;;;;;;5011260;28;20029;-74
2021/03/10 00:45:51;;;;;;;68.97;39.45;;;;;;;;;;5004995;28;20022;-73
2021/03/10 00:48:19;;;;;;;73.03;41.00;;;;;;;;;;5003927;28;20050;-73
2021/03/10 00:50:45;;;;;;;70.88;39.55;;;;;;;;;;5007526;28;20042;-73
2021/03/10 00:53:11;;;;;;;71.05;40.38;;;;;;;;;;5012284;28;20025;-73
2021/03/10 00:55:37;;;;;;;72.95;39.97;;;;;;;;;;5016924;28;20025;-73
2021/03/10 00:58:03;;;;;;;76.45;39.15;;;;;;;;;;5019813;28;20113;-73
2021/03/10 01:00:29;;;;;;;71.70;39.70;;;;;;;;;;5021023;28;20045;-74
2021/03/10 01:02:55;;;;;;;76.80;40.97;;;;;;;;;;5024760;28;20121;-73
2021/03/10 01:05:21;;;;;;;73.35;39.42;;;;;;;;;;5023227;28;20559;-72
2021/03/10 01:07:48;;;;;;;69.65;39.05;;;;;;;;;;5028991;28;20036;-73
2021/03/10 01:10:14;;;;;;;65.57;36.25;;;;;;;;;;5020206;28;20074;-73
2021/03/10 01:12:40;;;;;;;68.60;39.78;;;;;;;;;;5014461;28;20029;-72
2021/03/10 01:15:11;;;;;;;66.65;34.53;;;;;;;;;;5019316;28;20057;-73
2021/03/10 01:17:38;;;;;;;65.13;36.37;;;;;;;;;;5023705;28;20037;-73
2021/03/10 01:20:08;;;;;;;71.68;38.45;;;;;;;;;;5021659;28;20099;-72
2021/03/10 01:22:34;;;;;;;70.43;37.08;;;;;;;;;;5021465;28;20029;-73
2021/03/10 01:25:00;;;;;;;64.88;36.58;;;;;;;;;;5019594;28;20053;-72
2021/03/10 01:27:26;;;;;;;72.15;36.40;;;;;;;;;;5015037;28;20091;-73
2021/03/10 01:29:52;;;;;;;73.85;38.92;;;;;;;;;;5016321;28;20034;-73
2021/03/10 01:32:18;;;;;;;75.63;38.10;;;;;;;;;;5017396;28;20049;-74
2021/03/10 01:34:44;;;;;;;68.20;38.30;;;;;;;;;;5017158;28;20030;-72
2021/03/10 01:37:10;;;;;;;72.00;38.50;;;;;;;;;;5023275;28;20038;-72
2021/03/10 01:39:37;;;;;;;65.10;36.90;;;;;;;;;;5016419;28;20025;-73
2021/03/10 01:42:03;;;;;;;68.00;37.58;;;;;;;;;;5023294;28;20034;-72
2021/03/10 01:44:30;;;;;;;65.03;36.47;;;;;;;;;;5020012;28;20022;-73
2021/03/10 01:46:56;;;;;;;66.65;35.03;;;;;;;;;;5021588;28;20486;-72
2021/03/10 01:49:22;;;;;;;66.18;37.65;;;;;;;;;;5014655;28;20415;-72
2021/03/10 01:51:48;;;;;;;63.30;35.17;;;;;;;;;;5016120;28;20033;-72
2021/03/10 01:54:14;;;;;;;60.83;34.55;;;;;;;;;;5018099;28;20089;-72
2021/03/10 01:56:42;;;;;;;60.90;33.90;;;;;;;;;;5018352;28;20037;-72
2021/03/10 01:59:08;;;;;;;60.35;32.13;;;;;;;;;;5017888;28;20030;-72
2021/03/10 02:01:34;;;;;;;62.53;32.15;;;;;;;;;;5019869;28;20058;-72
2021/03/10 02:04:07;;;;;;;64.85;32.67;;;;;;;;;;5013999;28;20030;-72
2021/03/10 02:06:39;;;;;;;63.10;31.88;;;;;;;;;;5023562;28;20022;-73
2021/03/10 02:09:19;;;;;;;59.05;30.27;;;;;;;;;;5015512;28;20029;-72
2021/03/10 02:11:51;;;;;;;60.80;31.17;;;;;;;;;;5023376;28;20037;-73
2021/03/10 02:14:36;;;;;;;57.63;29.67;;;;;;;;;;5014234;28;20045;-73
2021/03/10 02:17:06;;;;;;;53.72;29.42;;;;;;;;;;5020495;28;20029;-73
2021/03/10 02:19:32;;;;;;;61.90;31.38;;;;;;;;;;5014734;28;20905;-73
2021/03/10 02:22:08;;;;;;;55.22;29.38;;;;;;;;;;5013577;28;20041;-73
2021/03/10 02:24:46;;;;;;;54.67;30.08;;;;;;;;;;5020965;28;20556;-72
2021/03/10 02:27:34;;;;;;;60.63;28.98;;;;;;;;;;5020028;28;20232;-72
2021/03/10 02:30:11;;;;;;;52.55;29.60;;;;;;;;;;5012831;28;20030;-72
2021/03/10 02:32:38;;;;;;;52.38;28.92;;;;;;;;;;5019020;28;20105;-73
2021/03/10 02:35:06;;;;;;;57.60;28.90;;;;;;;;;;5025316;28;20080;-72
2021/03/10 02:37:33;;;;;;;61.25;30.73;;;;;;;;;;5022991;28;20026;-73
2021/03/10 02:39:59;;;;;;;52.63;27.58;;;;;;;;;;5018480;28;20030;-72
2021/03/10 02:42:26;;;;;;;52.95;27.77;;;;;;;;;;5014777;28;20030;-72
2021/03/10 02:44:52;;;;;;;58.20;28.67;;;;;;;;;;5016378;28;20533;-72
2021/03/10 02:47:18;;;;;;;54.70;26.88;;;;;;;;;;5016874;28;20050;-73
2021/03/10 02:49:45;;;;;;;54.08;27.95;;;;;;;;;;5012275;28;20133;-73
2021/03/10 02:52:11;;;;;;;53.45;28.15;;;;;;;;;;5018430;28;20061;-73
2021/03/10 02:54:38;;;;;;;62.50;27.90;;;;;;;;;;5015606;28;20026;-72
2021/03/10 02:57:04;;;;;;;65.47;28.77;;;;;;;;;;5015048;28;20029;-72
2021/03/10 02:59:31;;;;;;;58.20;27.35;;;;;;;;;;5018102;28;20037;-72
2021/03/10 03:01:57;;;;;;;72.47;28.27;;;;;;;;;;5012940;28;20033;-72
2021/03/10 03:04:23;;;;;;;62.72;25.85;;;;;;;;;;5023109;28;20024;-72
2021/03/10 03:06:49;;;;;;;58.35;27.67;;;;;;;;;;5019098;28;20025;-72
2021/03/10 03:09:16;;;;;;;57.38;26.02;;;;;;;;;;5013209;28;20030;-72
2021/03/10 03:11:42;;;;;;;58.95;27.02;;;;;;;;;;5016590;28;20077;-72
2021/03/10 03:14:08;;;;;;;55.85;26.77;;;;;;;;;;5022699;28;20072;-72
2021/03/10 03:16:35;;;;;;;55.50;26.75;;;;;;;;;;5012005;28;20021;-72
2021/03/10 03:19:02;;;;;;;58.42;26.90;;;;;;;;;;5013537;28;20398;-72
2021/03/10 03:21:28;;;;;;;66.00;28.05;;;;;;;;;;5017889;28;20486;-72
2021/03/10 03:23:55;;;;;;;56.70;25.65;;;;;;;;;;5011530;28;20057;-73
2021/03/10 03:26:21;;;;;;;52.50;27.17;;;;;;;;;;5019306;28;20018;-72
2021/03/10 03:28:48;;;;;;;59.47;27.13;;;;;;;;;;5013996;28;20080;-72
2021/03/10 03:31:16;;;;;;;63.00;28.17;;;;;;;;;;5021219;28;20101;-73
2021/03/10 03:33:43;;;;;;;58.08;28.48;;;;;;;;;;5012290;28;20051;-73
2021/03/10 03:36:09;;;;;;;85.00;32.20;;;;;;;;;;5010091;28;20049;-73
2021/03/10 03:38:35;;;;;;;68.55;31.83;;;;;;;;;;5016982;28;20060;-73
2021/03/10 03:41:01;;;;;;;68.75;33.08;;;;;;;;;;5022899;28;20498;-73
2021/03/10 03:43:28;;;;;;;77.13;35.78;;;;;;;;;;5024316;28;20083;-73
2021/03/10 03:45:54;;;;;;;76.53;33.25;;;;;;;;;;5026792;28;20029;-73
2021/03/10 03:48:21;;;;;;;78.32;35.20;;;;;;;;;;5012449;28;20041;-73
2021/03/10 03:50:47;;;;;;;76.03;35.22;;;;;;;;;;5015916;28;20469;-73
2021/03/10 03:53:13;;;;;;;80.40;35.13;;;;;;;;;;5021630;28;20030;-73
2021/03/10 03:55:40;;;;;;;80.07;36.45;;;;;;;;;;5013522;28;20030;-72
2021/03/10 03:58:06;;;;;;;79.47;35.30;;;;;;;;;;5017796;28;20407;-73
2021/03/10 04:00:32;;;;;;;77.22;35.50;;;;;;;;;;5014115;28;20037;-72
2021/03/10 04:02:59;;;;;;;81.65;34.67;;;;;;;;;;5014301;28;20026;-73
2021/03/10 04:05:25;;;;;;;79.35;35.47;;;;;;;;;;5015356;28;20086;-73
2021/03/10 04:07:52;;;;;;;84.75;37.22;;;;;;;;;;5021763;28;20028;-73
2021/03/10 04:10:20;;;;;;;80.38;35.83;;;;;;;;;;5014082;28;20117;-72
2021/03/10 04:12:46;;;;;;;76.13;37.60;;;;;;;;;;5017341;28;20083;-73
2021/03/10 04:15:13;;;;;;;79.07;36.42;;;;;;;;;;5020473;28;20098;-74
2021/03/10 04:17:39;;;;;;;76.93;36.50;;;;;;;;;;5018485;28;20029;-73
2021/03/10 04:20:07;;;;;;;79.05;34.58;;;;;;;;;;5012151;28;20034;-73
2021/03/10 04:22:33;;;;;;;77.70;35.17;;;;;;;;;;5029254;28;20175;-73
2021/03/10 04:24:59;;;;;;;78.00;35.97;;;;;;;;;;5014413;28;20120;-72
2021/03/10 04:27:25;;;;;;;75.07;34.33;;;;;;;;;;5018643;28;20107;-73
2021/03/10 04:29:51;;;;;;;67.88;32.90;;;;;;;;;;5012265;28;20116;-73
2021/03/10 04:32:17;;;;;;;78.05;35.42;;;;;;;;;;5015917;28;20076;-73
2021/03/10 04:34:43;;;;;;;75.20;34.03;;;;;;;;;;5023964;28;20033;-73
2021/03/10 04:37:09;;;;;;;82.07;37.92;;;;;;;;;;5020511;28;20026;-73
2021/03/10 04:39:35;;;;;;;81.13;35.00;;;;;;;;;;5024852;28;20044;-73
2021/03/10 04:42:01;;;;;;;73.85;36.92;;;;;;;;;;5018811;28;20033;-73
2021/03/10 04:44:27;;;;;;;79.38;35.92;;;;;;;;;;5020755;28;20021;-73
2021/03/10 04:46:53;;;;;;;69.85;33.85;;;;;;;;;;5016060;28;20072;-73
2021/03/10 04:49:19;;;;;;;76.57;36.08;;;;;;;;;;5017291;28;20050;-73
2021/03/10 04:51:45;;;;;;;81.65;35.45;;;;;;;;;;5017933;28;20033;-73
2021/03/10 04:54:11;;;;;;;71.55;35.67;;;;;;;;;;5022534;28;20037;-74
2021/03/10 04:56:37;;;;;;;74.00;35.30;;;;;;;;;;5015813;28;20049;-73
2021/03/10 04:59:03;;;;;;;77.38;35.17;;;;;;;;;;5022274;28;20136;-73
2021/03/10 05:01:29;;;;;;;73.47;36.92;;;;;;;;;;5018622;28;20030;-73
2021/03/10 05:03:55;;;;;;;70.70;35.75;;;;;;;;;;5022298;28;20037;-73
2021/03/10 05:06:21;;;;;;;76.30;33.60;;;;;;;;;;5017642;28;20395;-73
2021/03/10 05:08:47;;;;;;;71.45;33.47;;;;;;;;;;5023095;28;20725;-74
2021/03/10 05:11:13;;;;;;;71.40;34.75;;;;;;;;;;5015819;28;20387;-73
2021/03/10 05:13:39;;;;;;;75.05;34.83;;;;;;;;;;5022752;28;20453;-73
2021/03/10 05:16:06;;;;;;;73.90;35.85;;;;;;;;;;5018732;28;20044;-73
2021/03/10 05:18:32;;;;;;;75.78;34.90;;;;;;;;;;5023600;28;20017;-73
2021/03/10 05:20:58;;;;;;;70.30;33.25;;;;;;;;;;5014735;28;20053;-73
2021/03/10 05:23:24;;;;;;;78.45;33.63;;;;;;;;;;5026011;28;20033;-73
2021/03/10 05:25:50;;;;;;;77.85;35.58;;;;;;;;;;5018764;28;20442;-73
2021/03/10 05:28:16;;;;;;;78.90;36.80;;;;;;;;;;5013962;28;20022;-73
2021/03/10 05:30:42;;;;;;;90.03;35.20;;;;;;;;;;5016609;28;20025;-72
2021/03/10 05:33:08;;;;;;;74.47;33.05;;;;;;;;;;5027460;28;20037;-75
2021/03/10 05:35:34;;;;;;;82.47;35.88;;;;;;;;;;5021585;28;20502;-73
2021/03/10 05:38:00;;;;;;;87.85;35.03;;;;;;;;;;5027150;28;20052;-73
2021/03/10 05:40:27;;;;;;;83.93;38.72;;;;;;;;;;5016432;28;20026;-73
2021/03/10 05:42:53;;;;;;;79.65;37.00;;;;;;;;;;5017629;28;20042;-73
2021/03/10 05:45:19;;;;;;;84.72;37.85;;;;;;;;;;5014945;28;20026;-73
2021/03/10 05:47:46;;;;;;;81.55;37.28;;;;;;;;;;5026104;28;20095;-73
2021/03/10 05:50:15;;;;;;;66.28;29.45;;;;;;;;;;5014682;28;20045;-75
2021/03/10 05:52:43;;;;;;;81.30;36.15;;;;;;;;;;5018957;28;20021;-74
2021/03/10 05:55:10;;;;;;;75.25;31.42;;;;;;;;;;5019679;28;20079;-77
2021/03/10 05:57:36;;;;;;;83.85;35.25;;;;;;;;;;5018836;28;20029;-73
2021/03/10 06:00:12;;;;;;;88.43;37.80;;;;;;;;;;5015015;28;20057;-74
2021/03/10 06:02:38;;;;;;;80.50;36.10;;;;;;;;;;5020690;28;20029;-73
2021/03/10 06:05:05;;;;;;;95.28;40.85;;;;;;;;;;5021540;28;20025;-73
2021/03/10 06:07:31;;;;;;;86.85;39.92;;;;;;;;;;5018508;28;20029;-74
2021/03/10 06:10:02;;;;;;;79.55;35.78;;;;;;;;;;5009846;28;20474;-75
2021/03/10 06:12:37;;;;;;;87.75;42.67;;;;;;;;;;5025292;28;20031;-73
2021/03/10 06:15:04;;;;;;;84.10;40.22;;;;;;;;;;5016974;28;20030;-73
2021/03/10 06:17:40;;;;;;;87.18;40.80;;;;;;;;;;5012173;28;20030;-74
2021/03/10 06:20:06;;;;;;;87.57;41.75;;;;;;;;;;5024259;28;20033;-73
2021/03/10 06:22:34;;;;;;;92.47;38.42;;;;;;;;;;5023001;28;20022;-74
2021/03/10 06:25:01;;;;;;;78.60;32.85;;;;;;;;;;5016624;28;20044;-75
2021/03/10 06:27:27;;;;;;;87.57;38.35;;;;;;;;;;5028685;28;20100;-73
2021/03/10 06:30:00;;;;;;;84.22;41.17;;;;;;;;;;5024322;28;20076;-73
2021/03/10 06:32:27;;;;;;;87.30;40.80;;;;;;;;;;5024556;28;20021;-74
2021/03/10 06:34:53;;;;;;;89.97;43.47;;;;;;;;;;5013635;28;20025;-73
2021/03/10 06:37:26;;;;;;;78.70;34.42;;;;;;;;;;5018184;28;20030;-75
2021/03/10 06:39:52;;;;;;;72.90;33.90;;;;;;;;;;5027131;28;20084;-76
2021/03/10 06:42:19;;;;;;;76.60;32.97;;;;;;;;;;5022150;28;20094;-75
2021/03/10 06:44:49;;;;;;;79.43;35.67;;;;;;;;;;5026466;28;20171;-74
2021/03/10 06:47:15;;;;;;;76.75;35.83;;;;;;;;;;5013423;28;20097;-74
2021/03/10 06:49:49;;;;;;;84.40;37.97;;;;;;;;;;5018842;28;20073;-73
2021/03/10 06:52:15;;;;;;;77.63;38.20;;;;;;;;;;5015214;28;20041;-73
2021/03/10 06:54:44;;;;;;;41.75;16.83;;;;;;;;;;5015091;28;20036;-76
2021/03/10 06:57:12;;;;;;;57.67;26.70;;;;;;;;;;5012771;28;20030;-76
2021/03/10 06:59:57;;;;;;;57.45;22.83;;;;;;;;;;5022037;28;20045;-78
2021/03/10 07:02:27;;;;;;;77.35;35.88;;;;;;;;;;5018733;28;20445;-75
2021/03/10 07:04:58;;;;;;;70.03;30.88;;;;;;;;;;5021146;28;20018;-76
2021/03/10 07:07:24;;;;;;;63.85;25.92;;;;;;;;;;5027564;28;20021;-76
2021/03/10 07:09:51;;;;;;;71.45;32.92;;;;;;;;;;5021145;28;20026;-76
2021/03/10 07:12:18;;;;;;;63.03;31.73;;;;;;;;;;5017870;28;20491;-76
2021/03/10 07:14:44;;;;;;;67.30;30.70;;;;;;;;;;5019548;28;20026;-76
2021/03/10 07:17:12;;;;;;;53.88;25.77;;;;;;;;;;5015534;28;20034;-77
2021/03/10 07:19:39;;;;;;;70.38;32.08;;;;;;;;;;5012722;28;20144;-76
2021/03/10 07:22:18;;;;;;;51.72;23.35;;;;;;;;;;5015051;28;20472;-78
2021/03/10 07:24:49;;;;;;;53.50;20.90;;;;;;;;;;5024853;28;20026;-76
2021/03/10 07:27:17;;;;;;;58.08;27.20;;;;;;;;;;5017509;28;20113;-78
2021/03/10 07:29:43;;;;;;;57.90;28.70;;;;;;;;;;5014584;28;20088;-77
2021/03/10 07:32:10;;;;;;;65.45;29.60;;;;;;;;;;5013597;28;20021;-76
2021/03/10 07:34:36;;;;;;;59.00;28.42;;;;;;;;;;5017264;28;20160;-76
2021/03/10 07:37:13;;;;;;;44.22;19.95;;;;;;;;;;5025817;28;20112;-78
2021/03/10 07:39:39;;;;;;;56.75;27.58;;;;;;;;;;5023900;28;20026;-76
2021/03/10 07:42:10;;;;;;;50.40;23.80;;;;;;;;;;5023852;28;20037;-77
2021/03/10 07:44:36;;;;;;;55.22;24.33;;;;;;;;;;5020610;28;20104;-75
2021/03/10 07:47:09;;;;;;;26.45;15.50;;;;;;;;;;5026170;28;20065;-77
2021/03/10 07:49:36;;;;;;;51.53;26.90;;;;;;;;;;5014588;28;20045;-77
2021/03/10 07:52:09;;;;;;;41.67;18.55;;;;;;;;;;5024308;28;20036;-77
2021/03/10 07:54:36;;;;;;;47.17;21.98;;;;;;;;;;5017259;28;20029;-76
2021/03/10 07:57:09;;;;;;;33.35;16.33;;;;;;;;;;5024304;28;20105;-76
2021/03/10 07:59:35;;;;;;;49.78;24.15;;;;;;;;;;5014511;28;20028;-76
2021/03/10 08:02:03;;;;;;;30.45;15.82;;;;;;;;;;5015838;28;20033;-78
2021/03/10 08:04:29;;;;;;;16.05;7.22;;;;;;;;;;5024969;28;20025;-79
2021/03/10 08:06:55;;;;;;;37.53;18.92;;;;;;;;;;5021996;28;20026;-79
2021/03/10 08:09:22;;;;;;;42.42;20.27;;;;;;;;;;5025756;28;20388;-77
2021/03/10 08:11:50;;;;;;;30.05;13.32;;;;;;;;;;5020117;28;20495;-79
2021/03/10 08:14:17;;;;;;;43.70;21.40;;;;;;;;;;5031072;28;20051;-74
2021/03/10 08:16:43;;;;;;;29.30;11.50;;;;;;;;;;5024171;28;20028;-79
2021/03/10 08:19:10;;;;;;;37.42;17.98;;;;;;;;;;5015632;28;20030;-80
2021/03/10 08:21:43;;;;;;;39.13;18.77;;;;;;;;;;5029569;28;20030;-79
2021/03/10 08:24:09;;;;;;;38.80;21.25;;;;;;;;;;5016643;28;20026;-76
2021/03/10 08:26:36;;;;;;;41.65;21.77;;;;;;;;;;5018832;28;20026;-76
2021/03/10 08:29:04;;;;;;;39.75;19.30;;;;;;;;;;5017472;28;20518;-77
2021/03/10 08:31:30;;;;;;;35.67;19.73;;;;;;;;;;5024314;28;20037;-76
2021/03/10 08:33:56;;;;;;;30.08;14.70;;;;;;;;;;5024003;28;20036;-78
2021/03/10 08:36:31;;;;;;;27.33;14.32;;;;;;;;;;5025501;28;20105;-77
2021/03/10 08:38:58;;;;;;;23.70;11.88;;;;;;;;;;5023884;28;20053;-75
2021/03/10 08:41:24;;;;;;;29.52;14.43;;;;;;;;;;5022346;28;20022;-78
2021/03/10 08:44:03;;;;;;;37.40;19.77;;;;;;;;;;5018062;28;20048;-77
2021/03/10 08:46:39;;;;;;;25.85;11.65;;;;;;;;;;5020764;28;20033;-77
2021/03/10 08:49:15;;;;;;;35.55;16.63;;;;;;;;;;5016176;28;20616;-76
2021/03/10 08:51:41;;;;;;;37.88;18.73;;;;;;;;;;5025633;28;20026;-77
2021/03/10 08:54:08;;;;;;;32.38;15.70;;;;;;;;;;5016869;28;20026;-74
2021/03/10 08:56:34;;;;;;;33.05;15.65;;;;;;;;;;5015303;28;20021;-78
2021/03/10 08:59:00;;;;;;;21.10;12.00;;;;;;;;;;5018355;28;20515;-77
2021/03/10 09:01:26;;;;;;;34.30;15.95;;;;;;;;;;5024454;28;20022;-78
2021/03/10 09:03:52;;;;;;;38.22;19.30;;;;;;;;;;5016352;28;20486;-78
2021/03/10 09:06:20;;;;;;;19.95;11.23;;;;;;;;;;5019171;28;20563;-74
2021/03/10 09:08:46;;;;;;;24.08;10.45;;;;;;;;;;5015975;28;20261;-73
2021/03/10 09:11:13;;;;;;;34.33;18.33;;;;;;;;;;5016713;28;20034;-76
2021/03/10 09:13:40;;;;;;;19.80;10.50;;;;;;;;;;5020531;28;20026;-78
2021/03/10 09:16:09;;;;;;;29.38;15.15;;;;;;;;;;5016230;28;20025;-76
2021/03/10 09:18:35;;;;;;;40.20;17.77;;;;;;;;;;5014133;28;20024;-77
2021/03/10 09:21:02;;;;;;;30.55;15.13;;;;;;;;;;5016562;28;20072;-76
2021/03/10 09:23:29;;;;;;;26.60;14.00;;;;;;;;;;5021805;28;20109;-76
2021/03/10 09:25:56;;;;;;;34.95;17.88;;;;;;;;;;5020079;28;20160;-77
2021/03/10 09:28:22;;;;;;;34.13;15.43;;;;;;;;;;5018415;28;20013;-76
2021/03/10 09:30:48;;;;;;;30.48;15.10;;;;;;;;;;5016512;28;20026;-75
2021/03/10 09:33:28;;;;;;;27.45;13.70;;;;;;;;;;5017526;28;20107;-79
2021/03/10 09:35:56;;;;;;;23.98;11.82;;;;;;;;;;5016156;28;20492;-77
2021/03/10 09:38:22;;;;;;;33.13;16.45;;;;;;;;;;5018372;28;20388;-78
2021/03/10 09:40:51;;;;;;;21.65;10.02;;;;;;;;;;5016970;28;20026;-76
2021/03/10 09:43:18;;;;;;;29.85;15.93;;;;;;;;;;5018366;28;20057;-76
2021/03/10 09:45:45;;;;;;;24.80;12.80;;;;;;;;;;5017595;28;20022;-79
2021/03/10 09:48:12;;;;;;;39.85;17.17;;;;;;;;;;5015738;28;20057;-76
2021/03/10 09:50:49;;;;;;;31.60;15.60;;;;;;;;;;5014504;28;20087;-75
2021/03/10 09:53:25;;;;;;;39.22;17.90;;;;;;;;;;5018653;28;20034;-75
2021/03/10 09:55:52;;;;;;;29.48;13.45;;;;;;;;;;5016531;28;20033;-77
2021/03/10 09:58:18;;;;;;;26.83;13.15;;;;;;;;;;5016532;28;20049;-75
2021/03/10 10:00:45;;;;;;;24.05;10.48;;;;;;;;;;5019079;28;20083;-76
2021/03/10 10:03:11;;;;;;;30.67;13.40;;;;;;;;;;5019076;28;20061;-75
2021/03/10 10:05:39;;;;;;;40.30;18.60;;;;;;;;;;5020934;28;20022;-78
2021/03/10 10:08:07;;;;;;;40.67;19.13;;;;;;;;;;5017782;28;20021;-77
2021/03/10 10:10:34;;;;;;;39.47;18.20;;;;;;;;;;5007837;28;20033;-76
2021/03/10 10:13:01;;;;;;;23.55;9.93;;;;;;;;;;5019023;28;20022;-78
2021/03/10 10:15:30;;;;;;;40.78;19.85;;;;;;;;;;5017493;28;20030;-75
2021/03/10 10:17:57;;;;;;;37.50;17.95;;;;;;;;;;5024413;28;20018;-74
2021/03/10 10:20:24;;;;;;;42.53;18.98;;;;;;;;;;5014373;28;20076;-73
2021/03/10 10:22:51;;;;;;;35.70;16.52;;;;;;;;;;5017170;28;20092;-73
2021/03/10 10:25:17;;;;;;;41.00;18.70;;;;;;;;;;5015749;28;20558;-71
2021/03/10 10:27:44;;;;;;;32.17;15.70;;;;;;;;;;5021025;28;20060;-71
2021/03/10 10:30:13;;;;;;;41.97;22.13;;;;;;;;;;5014303;28;20026;-78
2021/03/10 10:32:39;;;;;;;42.00;19.80;;;;;;;;;;5015650;28;20100;-75
2021/03/10 10:35:06;;;;;;;34.28;18.10;;;;;;;;;;5018041;28;20044;-77
2021/03/10 10:37:33;;;;;;;52.00;20.50;;;;;;;;;;5020163;28;20029;-78
2021/03/10 10:39:59;;;;;;;32.10;13.70;;;;;;;;;;5015700;28;20022;-77
2021/03/10 10:42:26;;;;;;;40.25;16.50;;;;;;;;;;5013938;28;20041;-75
2021/03/10 10:44:52;;;;;;;45.65;20.92;;;;;;;;;;5020208;28;20127;-74
2021/03/10 10:47:19;;;;;;;44.17;18.30;;;;;;;;;;5017548;28;20018;-76
2021/03/10 10:49:45;;;;;;;52.50;25.48;;;;;;;;;;5015814;28;20256;-76
2021/03/10 10:52:11;;;;;;;43.50;22.27;;;;;;;;;;5018573;28;20083;-77
2021/03/10 10:54:37;;;;;;;44.42;22.52;;;;;;;;;;5017128;28;20029;-75
2021/03/10 10:57:03;;;;;;;43.30;17.45;;;;;;;;;;5016279;28;20453;-76
2021/03/10 10:59:30;;;;;;;43.92;23.27;;;;;;;;;;5010901;28;20033;-75
2021/03/10 11:01:56;;;;;;;35.75;19.27;;;;;;;;;;5016962;28;20045;-74
2021/03/10 11:04:22;;;;;;;36.67;17.05;;;;;;;;;;5017437;28;20030;-75
2021/03/10 11:06:48;;;;;;;36.10;16.85;;;;;;;;;;5013048;28;20080;-77
2021/03/10 11:09:14;;;;;;;54.42;19.35;;;;;;;;;;5010437;28;20053;-75
2021/03/10 11:11:40;;;;;;;41.97;17.00;;;;;;;;;;5014071;28;20025;-78
2021/03/10 11:14:06;;;;;;;31.23;14.60;;;;;;;;;;5016247;28;20538;-77
2021/03/10 11:16:32;;;;;;;48.63;25.00;;;;;;;;;;5015362;28;20017;-81
2021/03/10 11:18:58;;;;;;;49.90;24.08;;;;;;;;;;5008957;28;20125;-80
2021/03/10 11:21:24;;;;;;;39.95;20.02;;;;;;;;;;5014301;28;20044;-74
2021/03/10 11:23:51;;;;;;;52.58;25.83;;;;;;;;;;5016325;28;20481;-76
2021/03/10 11:26:17;;;;;;;46.17;22.42;;;;;;;;;;5015750;28;20037;-73
2021/03/10 11:28:43;;;;;;;56.80;26.42;;;;;;;;;;5012282;28;20237;-76
2021/03/10 11:31:09;;;;;;;44.00;18.02;;;;;;;;;;5016646;28;20112;-75
2021/03/10 11:33:36;;;;;;;44.35;22.67;;;;;;;;;;5013603;28;20044;-76
2021/03/10 11:36:05;;;;;;;44.20;21.27;;;;;;;;;;5015921;28;20056;-75
2021/03/10 11:38:31;;;;;;;34.63;18.08;;;;;;;;;;5012138;28;20018;-77
2021/03/10 11:40:57;;;;;;;51.85;24.27;;;;;;;;;;5015696;28;20506;-75
2021/03/10 11:43:23;;;;;;;44.50;17.33;;;;;;;;;;5017820;28;20480;-74
2021/03/10 11:45:49;;;;;;;48.60;21.40;;;;;;;;;;5014771;28;20028;-74
2021/03/10 11:48:16;;;;;;;43.63;23.90;;;;;;;;;;5016475;28;20050;-78
2021/03/10 11:50:42;;;;;;;46.22;20.88;;;;;;;;;;5010566;28;20113;-72
2021/03/10 11:53:08;;;;;;;42.70;20.60;;;;;;;;;;5017787;28;20029;-72
2021/03/10 11:55:35;;;;;;;36.58;17.25;;;;;;;;;;5007741;28;20036;-74
2021/03/10 11:58:01;;;;;;;48.58;17.45;;;;;;;;;;5002396;28;20045;-73
2021/03/10 12:00:27;;;;;;;48.17;23.50;;;;;;;;;;4994393;28;20124;-74
2021/03/10 12:02:53;;;;;;;40.05;21.48;;;;;;;;;;4999416;28;20381;-73
2021/03/10 12:05:20;;;;;;;35.85;17.30;;;;;;;;;;4982341;28;20046;-73
2021/03/10 12:07:47;;;;;;;46.92;20.52;;;;;;;;;;4981388;28;20033;-72
2021/03/10 12:10:13;;;;;;;50.92;21.38;;;;;;;;;;4979721;28;20022;-73
2021/03/10 12:12:39;;;;;;;53.25;22.30;;;;;;;;;;4981231;28;20026;-76
2021/03/10 12:15:06;;;;;;;48.55;25.85;;;;;;;;;;4980586;28;20027;-74
2021/03/10 12:17:32;;;;;;;39.58;17.90;;;;;;;;;;4980998;28;20026;-74
2021/03/10 12:19:58;;;;;;;44.40;21.92;;;;;;;;;;4983946;28;20879;-74
2021/03/10 12:22:25;;;;;;;48.33;20.48;;;;;;;;;;4985717;28;20029;-72
2021/03/10 12:24:51;;;;;;;45.83;19.75;;;;;;;;;;4986408;28;20034;-73
2021/03/10 12:27:23;;;;;;;49.35;23.63;;;;;;;;;;4982423;28;20420;-75
2021/03/10 12:29:51;;;;;;;46.00;23.67;;;;;;;;;;4976734;28;20022;-76
2021/03/10 12:32:17;;;;;;;50.00;26.45;;;;;;;;;;4980680;28;20080;-74
2021/03/10 12:34:43;;;;;;;43.65;22.20;;;;;;;;;;4984641;28;20041;-75
2021/03/10 12:37:09;;;;;;;53.13;26.50;;;;;;;;;;4986384;28;20042;-75
2021/03/10 12:39:35;;;;;;;31.48;15.35;;;;;;;;;;4984343;28;20030;-76
2021/03/10 12:42:03;;;;;;;39.25;18.77;;;;;;;;;;4985982;28;20057;-76
2021/03/10 12:44:29;;;;;;;45.85;22.98;;;;;;;;;;4986241;28;20257;-76
2021/03/10 12:46:55;;;;;;;41.05;20.98;;;;;;;;;;4988160;28;20022;-75
2021/03/10 12:49:21;;;;;;;50.40;27.20;;;;;;;;;;4981689;28;20038;-75
2021/03/10 12:51:47;;;;;;;38.28;17.67;;;;;;;;;;4984437;28;20106;-75
2021/03/10 12:54:13;;;;;;;36.33;18.05;;;;;;;;;;4980109;28;20035;-70
2021/03/10 12:56:39;;;;;;;40.97;16.63;;;;;;;;;;4986471;28;20018;-74
2021/03/10 12:59:05;;;;;;;28.10;15.45;;;;;;;;;;4985043;28;20484;-76
2021/03/10 13:01:31;;;;;;;49.13;25.63;;;;;;;;;;4984488;28;20027;-75
2021/03/10 13:03:57;;;;;;;39.42;19.52;;;;;;;;;;4988527;28;20027;-75
2021/03/10 13:06:23;;;;;;;47.95;25.67;;;;;;;;;;4986986;28;20022;-75
2021/03/10 13:08:49;;;;;;;53.17;26.75;;;;;;;;;;4984768;28;20125;-76
2021/03/10 13:11:15;;;;;;;41.95;17.83;;;;;;;;;;4985389;28;20019;-74
2021/03/10 13:13:41;;;;;;;55.30;24.92;;;;;;;;;;4981901;28;20034;-76
2021/03/10 13:16:07;;;;;;;54.40;24.38;;;;;;;;;;4984418;28;20038;-74
2021/03/10 13:18:34;;;;;;;54.92;24.90;;;;;;;;;;4979285;28;20483;-75
2021/03/10 13:21:00;;;;;;;43.33;18.92;;;;;;;;;;4983286;28;20038;-73
2021/03/10 13:23:26;;;;;;;53.25;26.88;;;;;;;;;;4990114;28;20195;-74
2021/03/10 13:25:52;;;;;;;57.47;31.42;;;;;;;;;;4984802;28;20121;-75
2021/03/10 13:28:18;;;;;;;53.03;25.42;;;;;;;;;;4983621;28;20022;-75
2021/03/10 13:30:44;;;;;;;32.83;16.38;;;;;;;;;;4985176;28;20023;-72
2021/03/10 13:33:10;;;;;;;47.90;24.05;;;;;;;;;;4984722;28;20034;-74
2021/03/10 13:35:40;;;;;;;39.75;22.00;;;;;;;;;;4988452;28;20038;-75
2021/03/10 13:38:07;;;;;;;52.10;20.10;;;;;;;;;;4990684;28;20052;-74
2021/03/10 13:40:33;;;;;;;43.05;18.85;;;;;;;;;;4989176;28;20181;-74
2021/03/10 13:42:59;;;;;;;52.08;20.80;;;;;;;;;;4993371;28;20034;-75
2021/03/10 13:45:25;;;;;;;34.00;16.40;;;;;;;;;;4991617;28;20034;-74
2021/03/10 13:47:52;;;;;;;57.58;26.52;;;;;;;;;;4991325;28;20074;-73
2021/03/10 13:50:18;;;;;;;52.15;26.45;;;;;;;;;;4980264;28;20106;-74
2021/03/10 13:52:44;;;;;;;46.70;25.73;;;;;;;;;;4991557;28;20019;-74
2021/03/10 13:55:11;;;;;;;58.15;26.90;;;;;;;;;;4983280;28;20080;-75
2021/03/10 13:57:37;;;;;;;43.22;21.85;;;;;;;;;;4988691;28;20019;-75
2021/03/10 14:00:04;;;;;;;40.83;19.42;;;;;;;;;;4977961;28;20500;-74
2021/03/10 14:02:30;;;;;;;48.85;20.35;;;;;;;;;;4989353;28;20030;-73
2021/03/10 14:04:56;;;;;;;37.80;14.63;;;;;;;;;;4983111;28;20039;-69
2021/03/10 14:07:23;;;;;;;53.72;22.27;;;;;;;;;;4977824;28;20184;-74
2021/03/10 14:09:50;;;;;;;35.55;14.52;;;;;;;;;;4981384;28;20015;-74
2021/03/10 14:12:16;;;;;;;53.97;25.42;;;;;;;;;;4985596;28;20026;-75
2021/03/10 14:14:43;;;;;;;54.22;25.42;;;;;;;;;;4987229;28;20109;-74
2021/03/10 14:17:09;;;;;;;53.13;26.17;;;;;;;;;;4983733;28;20037;-75